sensor_id;sensor_type;location;lat;lon;timestamp;temperature;humidity
26907;DHT22;14472;56.880;16.658;2024-02-16T00:00:07;4.60;99.90
26907;DHT22;14472;56.880;16.658;2024-02-16T00:02:33;4.60;99.90
26907;DHT22;14472;56.880;16.658;2024-02-16T00:04:59;4.60;99.90
26907;DHT22;14472;56.880;16.658;2024-02-16T00:07:25;4.70;99.90
26907;DHT22;14472;56.880;16.658;2024-02-16T00:09:50;4.70;99.90
26907;DHT22;14472;56.880;16.658;2024-02-16T00:12:16;4.70;99.90
26907;DHT22;14472;56.880;16.658;2024-02-16T00:14:42;4.70;99.90
26907;DHT22;14472;56.880;16.658;2024-02-16T00:17:08;4.70;99.90
26907;DHT22;14472;56.880;16.658;2024-02-16T00:19:36;4.70;99.90
26907;DHT22;14472;56.880;16.658;2024-02-16T00:22:02;4.70;99.90
26907;DHT22;14472;56.880;16.658;2024-02-16T00:24:27;4.70;99.90
26907;DHT22;14472;56.880;16.658;2024-02-16T00:26:53;4.70;99.90
26907;DHT22;14472;56.880;16.658;2024-02-16T00:29:19;4.70;99.90
26907;DHT22;14472;56.880;16.658;2024-02-16T00:31:45;4.80;99.90
26907;DHT22;14472;56.880;16.658;2024-02-16T00:34:11;4.80;99.90
26907;DHT22;14472;56.880;16.658;2024-02-16T00:36:36;4.70;99.90
26907;DHT22;14472;56.880;16.658;2024-02-16T00:39:02;4.80;99.90
26907;DHT22;14472;56.880;16.658;2024-02-16T00:41:29;4.80;99.90
26907;DHT22;14472;56.880;16.658;2024-02-16T00:43:56;4.80;99.90
26907;DHT22;14472;56.880;16.658;2024-02-16T00:46:22;4.80;99.90
26907;DHT22;14472;56.880;16.658;2024-02-16T00:48:52;4.90;99.90
26907;DHT22;14472;56.880;16.658;2024-02-16T00:51:17;4.80;99.90
26907;DHT22;14472;56.880;16.658;2024-02-16T00:53:43;4.80;99.90
26907;DHT22;14472;56.880;16.658;2024-02-16T00:56:09;4.80;99.90
26907;DHT22;14472;56.880;16.658;2024-02-16T00:58:35;4.90;99.90
26907;DHT22;14472;56.880;16.658;2024-02-16T01:01:01;4.90;99.90
26907;DHT22;14472;56.880;16.658;2024-02-16T01:03:29;4.90;99.90
26907;DHT22;14472;56.880;16.658;2024-02-16T01:05:55;4.90;99.90
26907;DHT22;14472;56.880;16.658;2024-02-16T01:08:20;4.80;99.90
26907;DHT22;14472;56.880;16.658;2024-02-16T01:10:46;4.80;99.90
26907;DHT22;14472;56.880;16.658;2024-02-16T01:13:12;5.00;99.90
26907;DHT22;14472;56.880;16.658;2024-02-16T01:15:38;5.20;99.90
26907;DHT22;14472;56.880;16.658;2024-02-16T01:18:04;5.10;99.90
26907;DHT22;14472;56.880;16.658;2024-02-16T01:20:30;5.20;99.90
26907;DHT22;14472;56.880;16.658;2024-02-16T01:22:57;5.20;99.90
26907;DHT22;14472;56.880;16.658;2024-02-16T01:25:23;5.20;99.90
26907;DHT22;14472;56.880;16.658;2024-02-16T01:27:48;5.20;99.90
26907;DHT22;14472;56.880;16.658;2024-02-16T01:30:14;5.20;99.90
26907;DHT22;14472;56.880;16.658;2024-02-16T01:32:41;5.30;99.90
26907;DHT22;14472;56.880;16.658;2024-02-16T01:35:07;5.20;99.90
26907;DHT22;14472;56.880;16.658;2024-02-16T01:37:33;5.20;99.90
26907;DHT22;14472;56.880;16.658;2024-02-16T01:39:58;5.20;99.90
26907;DHT22;14472;56.880;16.658;2024-02-16T01:42:24;5.20;99.90
26907;DHT22;14472;56.880;16.658;2024-02-16T01:44:50;5.20;99.90
26907;DHT22;14472;56.880;16.658;2024-02-16T01:47:16;5.20;99.90
26907;DHT22;14472;56.880;16.658;2024-02-16T01:49:44;5.30;99.90
26907;DHT22;14472;56.880;16.658;2024-02-16T01:52:10;5.30;99.90
26907;DHT22;14472;56.880;16.658;2024-02-16T01:54:37;5.30;99.90
26907;DHT22;14472;56.880;16.658;2024-02-16T01:57:05;5.30;99.90
26907;DHT22;14472;56.880;16.658;2024-02-16T01:59:31;5.30;99.90
26907;DHT22;14472;56.880;16.658;2024-02-16T02:01:59;5.20;99.90
26907;DHT22;14472;56.880;16.658;2024-02-16T02:04:26;5.30;99.90
26907;DHT22;14472;56.880;16.658;2024-02-16T02:06:52;5.40;99.90
26907;DHT22;14472;56.880;16.658;2024-02-16T02:09:17;5.40;99.90
26907;DHT22;14472;56.880;16.658;2024-02-16T02:11:44;5.40;99.90
26907;DHT22;14472;56.880;16.658;2024-02-16T02:14:09;5.40;99.90
26907;DHT22;14472;56.880;16.658;2024-02-16T02:16:35;5.40;99.90
26907;DHT22;14472;56.880;16.658;2024-02-16T02:19:03;5.50;99.90
26907;DHT22;14472;56.880;16.658;2024-02-16T02:21:28;5.50;99.90
26907;DHT22;14472;56.880;16.658;2024-02-16T02:23:54;5.50;99.90
26907;DHT22;14472;56.880;16.658;2024-02-16T02:26:20;5.50;99.90
26907;DHT22;14472;56.880;16.658;2024-02-16T02:28:46;5.50;99.90
26907;DHT22;14472;56.880;16.658;2024-02-16T02:31:12;5.60;99.90
26907;DHT22;14472;56.880;16.658;2024-02-16T02:33:38;5.60;99.90
26907;DHT22;14472;56.880;16.658;2024-02-16T02:36:04;5.70;99.90
26907;DHT22;14472;56.880;16.658;2024-02-16T02:38:30;5.70;99.90
26907;DHT22;14472;56.880;16.658;2024-02-16T02:40:56;5.70;99.90
26907;DHT22;14472;56.880;16.658;2024-02-16T02:43:22;5.70;99.90
26907;DHT22;14472;56.880;16.658;2024-02-16T02:45:48;5.80;99.90
26907;DHT22;14472;56.880;16.658;2024-02-16T02:48:14;5.80;99.90
26907;DHT22;14472;56.880;16.658;2024-02-16T02:50:40;5.80;99.90
26907;DHT22;14472;56.880;16.658;2024-02-16T02:53:05;5.80;99.90
26907;DHT22;14472;56.880;16.658;2024-02-16T02:55:31;5.80;99.90
26907;DHT22;14472;56.880;16.658;2024-02-16T02:57:57;5.90;99.90
26907;DHT22;14472;56.880;16.658;2024-02-16T03:00:23;5.90;99.90
26907;DHT22;14472;56.880;16.658;2024-02-16T03:02:51;5.90;99.90
26907;DHT22;14472;56.880;16.658;2024-02-16T03:05:16;5.90;99.90
26907;DHT22;14472;56.880;16.658;2024-02-16T03:07:44;5.90;99.90
26907;DHT22;14472;56.880;16.658;2024-02-16T03:10:10;5.90;99.90
26907;DHT22;14472;56.880;16.658;2024-02-16T03:12:36;5.80;99.90
26907;DHT22;14472;56.880;16.658;2024-02-16T03:15:02;5.80;99.90
26907;DHT22;14472;56.880;16.658;2024-02-16T03:17:27;5.80;99.90
26907;DHT22;14472;56.880;16.658;2024-02-16T03:19:53;6.00;99.90
26907;DHT22;14472;56.880;16.658;2024-02-16T03:22:19;6.10;99.90
26907;DHT22;14472;56.880;16.658;2024-02-16T03:24:45;6.20;99.90
26907;DHT22;14472;56.880;16.658;2024-02-16T03:27:12;6.20;99.90
26907;DHT22;14472;56.880;16.658;2024-02-16T03:29:37;6.20;99.90
26907;DHT22;14472;56.880;16.658;2024-02-16T03:32:03;6.20;99.90
26907;DHT22;14472;56.880;16.658;2024-02-16T03:34:30;6.10;99.90
26907;DHT22;14472;56.880;16.658;2024-02-16T03:36:55;6.20;99.90
26907;DHT22;14472;56.880;16.658;2024-02-16T03:39:21;6.20;99.90
26907;DHT22;14472;56.880;16.658;2024-02-16T03:41:48;6.20;99.90
26907;DHT22;14472;56.880;16.658;2024-02-16T03:44:14;6.20;99.90
26907;DHT22;14472;56.880;16.658;2024-02-16T03:46:42;6.30;99.90
26907;DHT22;14472;56.880;16.658;2024-02-16T03:49:07;6.30;99.90
26907;DHT22;14472;56.880;16.658;2024-02-16T03:51:33;6.30;99.90
26907;DHT22;14472;56.880;16.658;2024-02-16T03:53:59;6.30;99.90
26907;DHT22;14472;56.880;16.658;2024-02-16T03:56:24;6.30;99.90
26907;DHT22;14472;56.880;16.658;2024-02-16T03:58:50;6.30;99.90
26907;DHT22;14472;56.880;16.658;2024-02-16T04:01:16;6.30;99.90
26907;DHT22;14472;56.880;16.658;2024-02-16T04:03:41;6.40;99.90
26907;DHT22;14472;56.880;16.658;2024-02-16T04:06:08;6.30;99.90
26907;DHT22;14472;56.880;16.658;2024-02-16T04:08:33;6.40;99.90
26907;DHT22;14472;56.880;16.658;2024-02-16T04:10:59;6.40;99.90
26907;DHT22;14472;56.880;16.658;2024-02-16T04:13:25;6.60;99.90
26907;DHT22;14472;56.880;16.658;2024-02-16T04:15:50;6.60;99.90
26907;DHT22;14472;56.880;16.658;2024-02-16T04:18:16;6.60;99.90
26907;DHT22;14472;56.880;16.658;2024-02-16T04:20:42;6.70;99.90
26907;DHT22;14472;56.880;16.658;2024-02-16T04:23:07;6.70;99.90
26907;DHT22;14472;56.880;16.658;2024-02-16T04:25:33;6.70;99.90
26907;DHT22;14472;56.880;16.658;2024-02-16T04:27:59;6.70;99.90
26907;DHT22;14472;56.880;16.658;2024-02-16T04:30:25;6.70;99.90
26907;DHT22;14472;56.880;16.658;2024-02-16T04:32:50;6.80;99.90
26907;DHT22;14472;56.880;16.658;2024-02-16T04:35:16;7.00;99.90
26907;DHT22;14472;56.880;16.658;2024-02-16T04:37:42;7.00;99.90
26907;DHT22;14472;56.880;16.658;2024-02-16T04:40:08;7.00;99.90
26907;DHT22;14472;56.880;16.658;2024-02-16T04:42:34;7.00;99.90
26907;DHT22;14472;56.880;16.658;2024-02-16T04:44:59;7.00;99.90
26907;DHT22;14472;56.880;16.658;2024-02-16T04:47:26;7.00;99.90
26907;DHT22;14472;56.880;16.658;2024-02-16T04:49:52;7.00;99.90
26907;DHT22;14472;56.880;16.658;2024-02-16T04:52:17;7.00;99.90
26907;DHT22;14472;56.880;16.658;2024-02-16T04:54:43;7.00;99.90
26907;DHT22;14472;56.880;16.658;2024-02-16T04:57:09;7.00;99.90
26907;DHT22;14472;56.880;16.658;2024-02-16T04:59:35;7.10;99.90
26907;DHT22;14472;56.880;16.658;2024-02-16T05:02:00;7.20;99.90
26907;DHT22;14472;56.880;16.658;2024-02-16T05:04:26;7.20;99.90
26907;DHT22;14472;56.880;16.658;2024-02-16T05:06:52;7.20;99.90
26907;DHT22;14472;56.880;16.658;2024-02-16T05:09:22;7.20;99.90
26907;DHT22;14472;56.880;16.658;2024-02-16T05:11:50;7.30;99.90
26907;DHT22;14472;56.880;16.658;2024-02-16T05:14:16;7.30;99.90
26907;DHT22;14472;56.880;16.658;2024-02-16T05:16:46;7.40;99.90
26907;DHT22;14472;56.880;16.658;2024-02-16T05:19:12;7.50;99.90
26907;DHT22;14472;56.880;16.658;2024-02-16T05:21:37;7.50;99.90
26907;DHT22;14472;56.880;16.658;2024-02-16T05:24:03;7.40;99.90
26907;DHT22;14472;56.880;16.658;2024-02-16T05:26:29;7.60;99.90
26907;DHT22;14472;56.880;16.658;2024-02-16T05:28:55;7.80;99.90
26907;DHT22;14472;56.880;16.658;2024-02-16T05:31:21;7.70;99.90
26907;DHT22;14472;56.880;16.658;2024-02-16T05:33:50;7.60;99.90
26907;DHT22;14472;56.880;16.658;2024-02-16T05:36:20;7.70;99.90
26907;DHT22;14472;56.880;16.658;2024-02-16T05:38:47;7.90;99.90
26907;DHT22;14472;56.880;16.658;2024-02-16T05:41:12;7.80;99.90
26907;DHT22;14472;56.880;16.658;2024-02-16T05:43:39;7.70;99.90
26907;DHT22;14472;56.880;16.658;2024-02-16T05:46:05;7.90;99.90
26907;DHT22;14472;56.880;16.658;2024-02-16T05:48:36;8.00;99.90
26907;DHT22;14472;56.880;16.658;2024-02-16T05:51:05;8.10;99.90
26907;DHT22;14472;56.880;16.658;2024-02-16T05:53:32;8.10;99.90
26907;DHT22;14472;56.880;16.658;2024-02-16T05:55:58;8.20;99.90
26907;DHT22;14472;56.880;16.658;2024-02-16T05:58:24;8.30;99.90
26907;DHT22;14472;56.880;16.658;2024-02-16T06:00:50;8.30;99.90
26907;DHT22;14472;56.880;16.658;2024-02-16T06:03:16;8.20;99.90
26907;DHT22;14472;56.880;16.658;2024-02-16T06:05:42;8.10;99.90
26907;DHT22;14472;56.880;16.658;2024-02-16T06:08:13;8.10;99.90
26907;DHT22;14472;56.880;16.658;2024-02-16T06:10:40;8.30;99.90
26907;DHT22;14472;56.880;16.658;2024-02-16T06:13:07;8.30;99.90
26907;DHT22;14472;56.880;16.658;2024-02-16T06:15:33;8.20;99.90
26907;DHT22;14472;56.880;16.658;2024-02-16T06:18:00;8.20;99.90
26907;DHT22;14472;56.880;16.658;2024-02-16T06:20:26;8.30;99.90
26907;DHT22;14472;56.880;16.658;2024-02-16T06:22:52;8.30;99.90
26907;DHT22;14472;56.880;16.658;2024-02-16T06:25:18;8.20;99.90
26907;DHT22;14472;56.880;16.658;2024-02-16T06:27:44;8.10;99.90
26907;DHT22;14472;56.880;16.658;2024-02-16T06:30:11;8.10;99.90
26907;DHT22;14472;56.880;16.658;2024-02-16T06:32:41;8.40;99.90
26907;DHT22;14472;56.880;16.658;2024-02-16T06:35:08;8.40;99.90
26907;DHT22;14472;56.880;16.658;2024-02-16T06:37:34;8.20;99.90
26907;DHT22;14472;56.880;16.658;2024-02-16T06:40:00;8.20;99.90
26907;DHT22;14472;56.880;16.658;2024-02-16T06:42:25;8.40;99.90
26907;DHT22;14472;56.880;16.658;2024-02-16T06:44:51;8.30;99.90
26907;DHT22;14472;56.880;16.658;2024-02-16T06:47:17;8.30;99.90
26907;DHT22;14472;56.880;16.658;2024-02-16T06:49:44;8.20;99.90
26907;DHT22;14472;56.880;16.658;2024-02-16T06:52:11;8.30;99.90
26907;DHT22;14472;56.880;16.658;2024-02-16T06:54:37;8.50;99.90
26907;DHT22;14472;56.880;16.658;2024-02-16T06:57:03;8.60;99.90
26907;DHT22;14472;56.880;16.658;2024-02-16T06:59:29;8.60;99.90
26907;DHT22;14472;56.880;16.658;2024-02-16T07:01:55;8.50;99.90
26907;DHT22;14472;56.880;16.658;2024-02-16T07:04:20;8.60;99.90
26907;DHT22;14472;56.880;16.658;2024-02-16T07:06:46;8.50;99.90
26907;DHT22;14472;56.880;16.658;2024-02-16T07:09:12;8.40;99.90
26907;DHT22;14472;56.880;16.658;2024-02-16T07:11:40;8.30;99.90
26907;DHT22;14472;56.880;16.658;2024-02-16T07:14:06;8.40;99.90
26907;DHT22;14472;56.880;16.658;2024-02-16T07:16:33;8.40;99.90
26907;DHT22;14472;56.880;16.658;2024-02-16T07:18:59;8.40;99.90
26907;DHT22;14472;56.880;16.658;2024-02-16T07:21:25;8.40;99.90
26907;DHT22;14472;56.880;16.658;2024-02-16T07:23:52;8.60;99.90
26907;DHT22;14472;56.880;16.658;2024-02-16T07:26:18;8.60;99.90
26907;DHT22;14472;56.880;16.658;2024-02-16T07:28:44;8.50;99.90
26907;DHT22;14472;56.880;16.658;2024-02-16T07:31:10;8.60;99.90
26907;DHT22;14472;56.880;16.658;2024-02-16T07:33:36;8.70;99.90
26907;DHT22;14472;56.880;16.658;2024-02-16T07:36:03;8.50;99.90
26907;DHT22;14472;56.880;16.658;2024-02-16T07:38:28;8.50;99.90
26907;DHT22;14472;56.880;16.658;2024-02-16T07:40:54;8.70;99.90
26907;DHT22;14472;56.880;16.658;2024-02-16T07:43:20;8.80;99.90
26907;DHT22;14472;56.880;16.658;2024-02-16T07:45:47;8.80;99.90
26907;DHT22;14472;56.880;16.658;2024-02-16T07:48:13;8.70;99.90
26907;DHT22;14472;56.880;16.658;2024-02-16T07:50:39;8.70;99.90
26907;DHT22;14472;56.880;16.658;2024-02-16T07:53:05;8.80;99.90
26907;DHT22;14472;56.880;16.658;2024-02-16T07:55:31;8.80;99.90
26907;DHT22;14472;56.880;16.658;2024-02-16T07:57:56;8.80;99.90
26907;DHT22;14472;56.880;16.658;2024-02-16T08:00:22;8.90;99.90
26907;DHT22;14472;56.880;16.658;2024-02-16T08:02:48;9.20;99.90
26907;DHT22;14472;56.880;16.658;2024-02-16T08:05:14;9.20;99.90
26907;DHT22;14472;56.880;16.658;2024-02-16T08:07:40;9.10;99.90
26907;DHT22;14472;56.880;16.658;2024-02-16T08:10:10;9.30;99.90
26907;DHT22;14472;56.880;16.658;2024-02-16T08:12:36;9.60;99.90
26907;DHT22;14472;56.880;16.658;2024-02-16T08:15:03;9.50;99.90
26907;DHT22;14472;56.880;16.658;2024-02-16T08:17:30;9.50;99.90
26907;DHT22;14472;56.880;16.658;2024-02-16T08:19:56;9.50;99.90
26907;DHT22;14472;56.880;16.658;2024-02-16T08:22:22;9.70;99.90
26907;DHT22;14472;56.880;16.658;2024-02-16T08:24:48;9.60;99.90
26907;DHT22;14472;56.880;16.658;2024-02-16T08:27:15;9.50;99.90
26907;DHT22;14472;56.880;16.658;2024-02-16T08:29:42;9.60;99.90
26907;DHT22;14472;56.880;16.658;2024-02-16T08:32:07;9.80;99.90
26907;DHT22;14472;56.880;16.658;2024-02-16T08:34:35;9.80;99.90
26907;DHT22;14472;56.880;16.658;2024-02-16T08:37:03;9.90;99.90
26907;DHT22;14472;56.880;16.658;2024-02-16T08:39:29;9.90;99.90
26907;DHT22;14472;56.880;16.658;2024-02-16T08:41:56;10.00;99.90
26907;DHT22;14472;56.880;16.658;2024-02-16T08:44:22;10.10;99.90
26907;DHT22;14472;56.880;16.658;2024-02-16T08:46:48;10.00;99.90
26907;DHT22;14472;56.880;16.658;2024-02-16T08:49:15;9.90;99.90
26907;DHT22;14472;56.880;16.658;2024-02-16T08:51:42;10.00;99.90
26907;DHT22;14472;56.880;16.658;2024-02-16T08:54:07;10.10;99.90
26907;DHT22;14472;56.880;16.658;2024-02-16T08:56:33;10.20;99.90
26907;DHT22;14472;56.880;16.658;2024-02-16T08:59:01;10.20;99.90
26907;DHT22;14472;56.880;16.658;2024-02-16T09:01:34;10.30;99.90
26907;DHT22;14472;56.880;16.658;2024-02-16T09:04:00;10.20;99.90
26907;DHT22;14472;56.880;16.658;2024-02-16T09:06:27;10.10;99.90
26907;DHT22;14472;56.880;16.658;2024-02-16T09:08:53;10.30;99.90
26907;DHT22;14472;56.880;16.658;2024-02-16T09:11:19;10.40;99.90
26907;DHT22;14472;56.880;16.658;2024-02-16T09:13:45;10.30;99.90
26907;DHT22;14472;56.880;16.658;2024-02-16T09:16:11;10.20;99.90
26907;DHT22;14472;56.880;16.658;2024-02-16T09:18:37;10.40;99.90
26907;DHT22;14472;56.880;16.658;2024-02-16T09:21:04;10.40;99.90
26907;DHT22;14472;56.880;16.658;2024-02-16T09:23:30;10.50;99.90
26907;DHT22;14472;56.880;16.658;2024-02-16T09:25:56;10.60;99.90
26907;DHT22;14472;56.880;16.658;2024-02-16T09:28:22;10.80;99.90
26907;DHT22;14472;56.880;16.658;2024-02-16T09:30:48;10.80;99.90
26907;DHT22;14472;56.880;16.658;2024-02-16T09:33:13;10.70;99.90
26907;DHT22;14472;56.880;16.658;2024-02-16T09:35:40;10.70;99.90
26907;DHT22;14472;56.880;16.658;2024-02-16T09:38:05;10.90;99.90
26907;DHT22;14472;56.880;16.658;2024-02-16T09:40:31;10.80;99.90
26907;DHT22;14472;56.880;16.658;2024-02-16T09:42:57;10.80;99.90
26907;DHT22;14472;56.880;16.658;2024-02-16T09:45:24;10.80;99.90
26907;DHT22;14472;56.880;16.658;2024-02-16T09:47:52;10.90;99.90
26907;DHT22;14472;56.880;16.658;2024-02-16T09:50:20;10.80;99.90
26907;DHT22;14472;56.880;16.658;2024-02-16T09:52:48;10.80;99.90
26907;DHT22;14472;56.880;16.658;2024-02-16T09:55:14;10.90;99.90
26907;DHT22;14472;56.880;16.658;2024-02-16T09:57:41;10.90;99.90
26907;DHT22;14472;56.880;16.658;2024-02-16T10:00:07;10.80;99.90
26907;DHT22;14472;56.880;16.658;2024-02-16T10:02:45;10.70;99.90
26907;DHT22;14472;56.880;16.658;2024-02-16T10:05:21;10.80;99.90
26907;DHT22;14472;56.880;16.658;2024-02-16T10:07:47;10.80;99.90
26907;DHT22;14472;56.880;16.658;2024-02-16T10:10:26;10.90;99.90
26907;DHT22;14472;56.880;16.658;2024-02-16T10:13:04;10.90;99.90
26907;DHT22;14472;56.880;16.658;2024-02-16T10:15:31;10.90;99.90
26907;DHT22;14472;56.880;16.658;2024-02-16T10:18:01;10.90;99.90
26907;DHT22;14472;56.880;16.658;2024-02-16T10:20:27;10.90;99.90
26907;DHT22;14472;56.880;16.658;2024-02-16T10:23:07;10.90;99.90
26907;DHT22;14472;56.880;16.658;2024-02-16T10:25:34;11.00;99.90
26907;DHT22;14472;56.880;16.658;2024-02-16T10:28:08;10.90;99.90
26907;DHT22;14472;56.880;16.658;2024-02-16T10:30:38;10.90;99.90
26907;DHT22;14472;56.880;16.658;2024-02-16T10:33:07;11.00;99.90
26907;DHT22;14472;56.880;16.658;2024-02-16T10:35:37;11.00;99.90
26907;DHT22;14472;56.880;16.658;2024-02-16T10:38:04;10.90;99.90
26907;DHT22;14472;56.880;16.658;2024-02-16T10:40:38;11.00;99.90
26907;DHT22;14472;56.880;16.658;2024-02-16T10:43:04;11.00;99.90
26907;DHT22;14472;56.880;16.658;2024-02-16T10:45:37;11.00;99.90
26907;DHT22;14472;56.880;16.658;2024-02-16T10:48:04;10.90;99.90
26907;DHT22;14472;56.880;16.658;2024-02-16T10:50:32;11.00;99.90
26907;DHT22;14472;56.880;16.658;2024-02-16T10:53:03;10.90;99.90
26907;DHT22;14472;56.880;16.658;2024-02-16T10:55:30;10.70;99.90
26907;DHT22;14472;56.880;16.658;2024-02-16T10:57:56;10.70;99.90
26907;DHT22;14472;56.880;16.658;2024-02-16T11:00:23;11.00;99.90
26907;DHT22;14472;56.880;16.658;2024-02-16T11:02:58;10.80;99.90
26907;DHT22;14472;56.880;16.658;2024-02-16T11:05:41;10.70;99.90
26907;DHT22;14472;56.880;16.658;2024-02-16T11:08:17;10.80;99.90
26907;DHT22;14472;56.880;16.658;2024-02-16T11:11:10;10.70;99.90
26907;DHT22;14472;56.880;16.658;2024-02-16T11:13:37;10.70;99.90
26907;DHT22;14472;56.880;16.658;2024-02-16T11:16:09;10.80;99.90
26907;DHT22;14472;56.880;16.658;2024-02-16T11:18:42;10.80;99.90
26907;DHT22;14472;56.880;16.658;2024-02-16T11:21:16;10.70;99.90
26907;DHT22;14472;56.880;16.658;2024-02-16T11:23:42;10.70;99.90
26907;DHT22;14472;56.880;16.658;2024-02-16T11:26:12;10.80;99.90
26907;DHT22;14472;56.880;16.658;2024-02-16T11:28:41;10.70;99.90
26907;DHT22;14472;56.880;16.658;2024-02-16T11:31:06;10.70;99.90
26907;DHT22;14472;56.880;16.658;2024-02-16T11:33:33;10.70;99.90
26907;DHT22;14472;56.880;16.658;2024-02-16T11:36:03;10.80;99.90
26907;DHT22;14472;56.880;16.658;2024-02-16T11:38:32;10.70;99.90
26907;DHT22;14472;56.880;16.658;2024-02-16T11:41:16;10.50;99.90
26907;DHT22;14472;56.880;16.658;2024-02-16T11:43:42;10.50;99.90
26907;DHT22;14472;56.880;16.658;2024-02-16T11:46:15;10.50;99.90
26907;DHT22;14472;56.880;16.658;2024-02-16T11:48:43;10.50;99.90
26907;DHT22;14472;56.880;16.658;2024-02-16T11:51:08;10.50;99.90
26907;DHT22;14472;56.880;16.658;2024-02-16T11:53:34;10.50;99.90
26907;DHT22;14472;56.880;16.658;2024-02-16T11:56:00;10.50;99.90
26907;DHT22;14472;56.880;16.658;2024-02-16T11:58:26;10.50;99.90
26907;DHT22;14472;56.880;16.658;2024-02-16T12:00:52;10.50;99.90
26907;DHT22;14472;56.880;16.658;2024-02-16T12:03:22;10.60;99.90
26907;DHT22;14472;56.880;16.658;2024-02-16T12:05:52;10.70;99.90
26907;DHT22;14472;56.880;16.658;2024-02-16T12:08:20;10.70;99.90
26907;DHT22;14472;56.880;16.658;2024-02-16T12:10:50;10.90;99.90
26907;DHT22;14472;56.880;16.658;2024-02-16T12:13:17;10.90;99.90
26907;DHT22;14472;56.880;16.658;2024-02-16T12:15:47;10.90;99.90
26907;DHT22;14472;56.880;16.658;2024-02-16T12:18:21;10.90;99.90
26907;DHT22;14472;56.880;16.658;2024-02-16T12:21:04;11.00;99.90
26907;DHT22;14472;56.880;16.658;2024-02-16T12:23:31;11.10;99.90
26907;DHT22;14472;56.880;16.658;2024-02-16T12:26:00;11.10;99.90
26907;DHT22;14472;56.880;16.658;2024-02-16T12:28:28;11.10;99.90
26907;DHT22;14472;56.880;16.658;2024-02-16T12:30:57;11.10;99.90
26907;DHT22;14472;56.880;16.658;2024-02-16T12:33:24;11.00;99.90
26907;DHT22;14472;56.880;16.658;2024-02-16T12:35:50;10.90;99.90
26907;DHT22;14472;56.880;16.658;2024-02-16T12:38:15;11.00;99.90
26907;DHT22;14472;56.880;16.658;2024-02-16T12:40:48;10.90;99.90
26907;DHT22;14472;56.880;16.658;2024-02-16T12:43:14;10.90;99.90
26907;DHT22;14472;56.880;16.658;2024-02-16T12:45:40;10.90;99.90
26907;DHT22;14472;56.880;16.658;2024-02-16T12:48:06;11.00;99.90
26907;DHT22;14472;56.880;16.658;2024-02-16T12:50:32;10.80;99.90
26907;DHT22;14472;56.880;16.658;2024-02-16T12:52:58;10.80;99.90
26907;DHT22;14472;56.880;16.658;2024-02-16T12:55:25;10.90;99.90
26907;DHT22;14472;56.880;16.658;2024-02-16T12:57:51;10.90;99.90
26907;DHT22;14472;56.880;16.658;2024-02-16T13:00:17;10.80;99.90
26907;DHT22;14472;56.880;16.658;2024-02-16T13:02:43;10.70;99.90
26907;DHT22;14472;56.880;16.658;2024-02-16T13:05:09;10.80;99.90
26907;DHT22;14472;56.880;16.658;2024-02-16T13:07:36;10.70;99.90
26907;DHT22;14472;56.880;16.658;2024-02-16T13:10:05;10.50;99.90
26907;DHT22;14472;56.880;16.658;2024-02-16T13:12:31;10.50;99.90
26907;DHT22;14472;56.880;16.658;2024-02-16T13:14:57;10.50;99.90
26907;DHT22;14472;56.880;16.658;2024-02-16T13:17:22;10.50;99.90
26907;DHT22;14472;56.880;16.658;2024-02-16T13:19:48;10.50;99.90
26907;DHT22;14472;56.880;16.658;2024-02-16T13:22:14;10.50;99.90
26907;DHT22;14472;56.880;16.658;2024-02-16T13:24:40;10.50;99.90
26907;DHT22;14472;56.880;16.658;2024-02-16T13:27:07;10.40;99.90
26907;DHT22;14472;56.880;16.658;2024-02-16T13:29:33;10.40;99.90
26907;DHT22;14472;56.880;16.658;2024-02-16T13:31:59;10.50;99.90
26907;DHT22;14472;56.880;16.658;2024-02-16T13:34:25;10.50;99.90
26907;DHT22;14472;56.880;16.658;2024-02-16T13:36:52;10.40;99.90
26907;DHT22;14472;56.880;16.658;2024-02-16T13:39:18;10.30;99.90
26907;DHT22;14472;56.880;16.658;2024-02-16T13:41:45;10.40;99.90
26907;DHT22;14472;56.880;16.658;2024-02-16T13:44:13;10.30;99.90
26907;DHT22;14472;56.880;16.658;2024-02-16T13:46:38;10.30;99.90
26907;DHT22;14472;56.880;16.658;2024-02-16T13:49:04;10.40;99.90
26907;DHT22;14472;56.880;16.658;2024-02-16T13:51:30;10.50;99.90
26907;DHT22;14472;56.880;16.658;2024-02-16T13:53:55;10.40;99.90
26907;DHT22;14472;56.880;16.658;2024-02-16T13:56:21;10.30;99.90
26907;DHT22;14472;56.880;16.658;2024-02-16T13:58:47;10.40;99.90
26907;DHT22;14472;56.880;16.658;2024-02-16T14:01:13;10.30;99.90
26907;DHT22;14472;56.880;16.658;2024-02-16T14:03:39;10.20;99.90
26907;DHT22;14472;56.880;16.658;2024-02-16T14:06:06;10.10;99.90
26907;DHT22;14472;56.880;16.658;2024-02-16T14:08:35;10.30;99.90
26907;DHT22;14472;56.880;16.658;2024-02-16T14:11:01;10.30;99.90
26907;DHT22;14472;56.880;16.658;2024-02-16T14:13:27;10.20;99.90
26907;DHT22;14472;56.880;16.658;2024-02-16T14:15:54;10.20;99.90
26907;DHT22;14472;56.880;16.658;2024-02-16T14:18:19;10.20;99.90
26907;DHT22;14472;56.880;16.658;2024-02-16T14:20:45;10.10;99.90
26907;DHT22;14472;56.880;16.658;2024-02-16T14:23:11;10.00;99.90
26907;DHT22;14472;56.880;16.658;2024-02-16T14:25:37;10.10;99.90
26907;DHT22;14472;56.880;16.658;2024-02-16T14:28:06;10.20;99.90
26907;DHT22;14472;56.880;16.658;2024-02-16T14:30:31;10.10;99.90
26907;DHT22;14472;56.880;16.658;2024-02-16T14:33:00;9.90;99.90
26907;DHT22;14472;56.880;16.658;2024-02-16T14:35:26;10.00;99.90
26907;DHT22;14472;56.880;16.658;2024-02-16T14:37:52;10.00;99.90
26907;DHT22;14472;56.880;16.658;2024-02-16T14:40:17;9.90;99.90
26907;DHT22;14472;56.880;16.658;2024-02-16T14:42:43;9.90;99.90
26907;DHT22;14472;56.880;16.658;2024-02-16T14:45:09;10.00;99.90
26907;DHT22;14472;56.880;16.658;2024-02-16T14:47:45;10.00;99.90
26907;DHT22;14472;56.880;16.658;2024-02-16T14:50:11;9.90;99.90
26907;DHT22;14472;56.880;16.658;2024-02-16T14:52:41;9.90;99.90
26907;DHT22;14472;56.880;16.658;2024-02-16T14:55:07;9.90;99.90
26907;DHT22;14472;56.880;16.658;2024-02-16T14:57:38;9.90;99.90
26907;DHT22;14472;56.880;16.658;2024-02-16T15:00:06;9.80;99.90
26907;DHT22;14472;56.880;16.658;2024-02-16T15:02:32;9.80;99.90
26907;DHT22;14472;56.880;16.658;2024-02-16T15:04:58;10.00;99.90
26907;DHT22;14472;56.880;16.658;2024-02-16T15:07:25;10.10;99.90
26907;DHT22;14472;56.880;16.658;2024-02-16T15:09:50;10.00;99.90
26907;DHT22;14472;56.880;16.658;2024-02-16T15:12:16;10.00;99.90
26907;DHT22;14472;56.880;16.658;2024-02-16T15:14:45;10.00;99.90
26907;DHT22;14472;56.880;16.658;2024-02-16T15:17:11;10.00;99.90
26907;DHT22;14472;56.880;16.658;2024-02-16T15:19:37;10.00;99.90
26907;DHT22;14472;56.880;16.658;2024-02-16T15:22:03;10.00;99.90